createdAt,value
2022-12-27T00:01:16.676Z,13.94
2022-12-27T00:03:43.849Z,13.99
2022-12-27T00:06:22.003Z,14.00
2022-12-27T00:08:49.256Z,13.91
2022-12-27T00:11:17.417Z,13.86
2022-12-27T00:13:44.650Z,13.71
2022-12-27T00:16:13.391Z,13.61
2022-12-27T00:18:40.731Z,13.53
2022-12-27T00:21:08.118Z,13.58
2022-12-27T00:23:36.864Z,13.44
2022-12-27T00:26:08.328Z,13.28
2022-12-27T00:28:35.447Z,13.06
2022-12-27T00:31:03.725Z,13.14
2022-12-27T00:33:31.800Z,13.13
2022-12-27T00:35:59.076Z,13.07
2022-12-27T00:38:26.136Z,13.03
2022-12-27T00:40:52.690Z,12.96
2022-12-27T00:43:19.412Z,12.88
2022-12-27T00:45:46.111Z,12.90
2022-12-27T00:48:12.974Z,13.01
2022-12-27T00:50:40.660Z,12.85
2022-12-27T00:53:08.137Z,12.75
2022-12-27T00:55:34.826Z,12.80
2022-12-27T00:58:01.461Z,12.77
2022-12-27T01:00:28.142Z,12.77
2022-12-27T01:02:54.667Z,12.86
2022-12-27T01:05:22.067Z,12.94
2022-12-27T01:07:48.712Z,12.95
2022-12-27T01:10:15.582Z,12.88
2022-12-27T01:12:42.319Z,12.78
2022-12-27T01:15:09.657Z,12.81
2022-12-27T01:17:36.283Z,12.77
2022-12-27T01:20:02.960Z,12.59
2022-12-27T01:22:29.548Z,12.74
2022-12-27T01:24:56.213Z,12.78
2022-12-27T01:27:22.855Z,12.83
2022-12-27T01:29:49.457Z,12.85
2022-12-27T01:32:15.965Z,12.81
2022-12-27T01:34:42.600Z,12.74
2022-12-27T01:37:09.173Z,12.69
2022-12-27T01:39:35.831Z,12.53
2022-12-27T01:42:21.117Z,12.54
2022-12-27T01:44:57.884Z,12.54
2022-12-27T01:47:27.720Z,12.48
2022-12-27T01:49:58.246Z,12.50
2022-12-27T01:52:26.707Z,12.47
2022-12-27T01:54:54.554Z,12.39
2022-12-27T01:57:21.639Z,12.50
2022-12-27T01:59:48.619Z,12.43
2022-12-27T02:02:15.425Z,12.43
2022-12-27T02:04:42.068Z,12.53
2022-12-27T02:07:08.706Z,12.61
2022-12-27T02:09:49.294Z,12.60
2022-12-27T02:12:16.128Z,12.59
2022-12-27T02:14:44.113Z,12.42
2022-12-27T02:17:12.296Z,12.38
2022-12-27T02:19:41.963Z,12.50
2022-12-27T02:22:11.297Z,12.48
2022-12-27T02:25:00.170Z,12.44
2022-12-27T02:27:39.748Z,12.53
2022-12-27T02:30:06.899Z,12.61
2022-12-27T02:32:36.737Z,12.63
2022-12-27T02:35:09.498Z,12.65
2022-12-27T02:37:39.709Z,12.60
2022-12-27T02:40:27.386Z,12.69
2022-12-27T02:43:13.270Z,12.68
2022-12-27T02:46:06.085Z,12.69
2022-12-27T02:48:51.241Z,12.65
2022-12-27T02:51:50.266Z,12.56
2022-12-27T02:54:25.878Z,12.32
2022-12-27T02:57:09.448Z,12.40
2022-12-27T03:00:13.232Z,12.35
2022-12-27T03:03:07.816Z,12.43
2022-12-27T03:06:13.152Z,12.38
2022-12-27T03:08:49.884Z,12.42
2022-12-27T03:11:35.858Z,12.39
2022-12-27T03:14:30.217Z,12.44
2022-12-27T03:17:01.962Z,12.40
2022-12-27T03:19:50.185Z,12.44
2022-12-27T03:22:37.376Z,12.29
2022-12-27T03:25:23.279Z,12.15
2022-12-27T03:28:10.759Z,12.27
2022-12-27T03:30:56.898Z,12.21
2022-12-27T03:33:25.117Z,12.00
2022-12-27T03:36:10.273Z,11.98
2022-12-27T03:38:47.171Z,11.99
2022-12-27T03:41:39.011Z,11.97
2022-12-27T03:44:24.223Z,11.89
2022-12-27T03:46:56.124Z,11.90
2022-12-27T03:49:41.451Z,11.88
2022-12-27T03:52:08.100Z,11.98
2022-12-27T03:54:41.967Z,11.92
2022-12-27T03:57:11.564Z,11.94
2022-12-27T03:59:38.667Z,11.91
2022-12-27T04:02:05.974Z,11.85
2022-12-27T04:04:32.990Z,11.98
2022-12-27T04:06:59.590Z,11.87
2022-12-27T04:09:45.023Z,11.80
2022-12-27T04:12:30.853Z,11.86
2022-12-27T04:15:15.920Z,12.02
2022-12-27T04:18:01.743Z,12.10
2022-12-27T04:20:47.166Z,12.02
2022-12-27T04:23:32.441Z,12.05
2022-12-27T04:26:17.679Z,12.06
2022-12-27T04:29:02.769Z,11.92
2022-12-27T04:31:47.834Z,11.92
2022-12-27T04:34:33.292Z,11.89
2022-12-27T04:36:59.951Z,11.97
2022-12-27T04:39:26.498Z,11.93
2022-12-27T04:42:11.712Z,11.85
2022-12-27T04:44:56.989Z,11.80
2022-12-27T04:47:42.396Z,11.66
2022-12-27T04:50:53.953Z,11.70
2022-12-27T04:53:40.054Z,11.85
2022-12-27T04:56:07.089Z,11.77
2022-12-27T04:58:33.683Z,11.80
2022-12-27T05:01:20.452Z,11.85
2022-12-27T05:03:49.175Z,11.83
2022-12-27T05:06:16.929Z,11.71
2022-12-27T05:09:10.079Z,11.75
2022-12-27T05:11:55.264Z,11.67
2022-12-27T05:14:21.920Z,11.73
2022-12-27T05:16:48.563Z,11.67
2022-12-27T05:19:15.561Z,11.66
2022-12-27T05:22:03.839Z,11.65
2022-12-27T05:24:49.179Z,11.57
2022-12-27T05:27:15.980Z,11.48
2022-12-27T05:29:42.539Z,11.51
2022-12-27T05:32:13.335Z,11.66
2022-12-27T05:34:40.701Z,11.58
2022-12-27T05:37:07.275Z,11.58
2022-12-27T05:39:33.907Z,11.54
2022-12-27T05:42:00.483Z,11.57
2022-12-27T05:44:27.123Z,11.46
2022-12-27T05:46:54.101Z,11.53
2022-12-27T05:49:21.612Z,11.54
2022-12-27T05:51:49.044Z,11.53
2022-12-27T05:54:15.743Z,11.28
2022-12-27T05:56:42.375Z,11.26
2022-12-27T05:59:09.096Z,11.21
2022-12-27T06:01:35.782Z,11.19
2022-12-27T06:04:02.711Z,11.29
2022-12-27T06:06:29.257Z,11.35
2022-12-27T06:08:55.869Z,11.20
2022-12-27T06:11:22.454Z,11.34
2022-12-27T06:13:50.706Z,11.39
2022-12-27T06:16:17.754Z,11.36
2022-12-27T06:18:44.657Z,11.41
2022-12-27T06:21:15.948Z,11.21
2022-12-27T06:23:44.720Z,11.31
2022-12-27T06:26:12.596Z,11.32
2022-12-27T06:28:39.188Z,11.24
2022-12-27T06:31:05.945Z,11.30
2022-12-27T06:33:32.724Z,11.18
2022-12-27T06:35:59.532Z,11.21
2022-12-27T06:38:26.267Z,11.19
2022-12-27T06:40:52.848Z,11.05
2022-12-27T06:43:19.481Z,11.05
2022-12-27T06:45:54.987Z,10.93
2022-12-27T06:48:21.616Z,10.87
2022-12-27T06:50:48.627Z,10.86
2022-12-27T06:53:15.330Z,10.83
2022-12-27T06:55:41.852Z,10.92
2022-12-27T06:58:08.417Z,10.88
2022-12-27T07:00:34.993Z,10.80
2022-12-27T07:03:03.089Z,10.80
2022-12-27T07:05:29.998Z,10.75
2022-12-27T07:07:56.597Z,10.88
2022-12-27T07:10:23.284Z,10.91
2022-12-27T07:12:49.809Z,11.02
2022-12-27T07:15:16.422Z,10.97
2022-12-27T07:17:42.933Z,11.02
2022-12-27T07:20:09.801Z,10.97
2022-12-27T07:22:36.406Z,10.92
2022-12-27T07:25:03.106Z,10.79
2022-12-27T07:27:29.664Z,10.80
2022-12-27T07:29:56.353Z,10.80
2022-12-27T07:32:22.910Z,10.78
2022-12-27T07:34:49.560Z,10.86
2022-12-27T07:37:17.762Z,10.77
2022-12-27T07:39:44.769Z,10.94
2022-12-27T07:42:11.344Z,10.83
2022-12-27T07:44:38.107Z,10.79
2022-12-27T07:47:04.955Z,10.84
2022-12-27T07:49:31.594Z,10.78
2022-12-27T07:51:58.225Z,10.89
2022-12-27T07:54:24.856Z,10.70
2022-12-27T07:56:51.431Z,10.72
2022-12-27T07:59:18.092Z,10.92
2022-12-27T08:02:03.263Z,10.99
2022-12-27T08:04:30.386Z,11.04
2022-12-27T08:07:00.684Z,11.10
2022-12-27T08:09:29.340Z,11.13
2022-12-27T08:11:56.024Z,11.18
2022-12-27T08:14:22.719Z,11.30
2022-12-27T08:16:49.336Z,11.36
2022-12-27T08:19:15.985Z,11.38
2022-12-27T08:21:42.527Z,11.50
2022-12-27T08:24:09.130Z,11.81
2022-12-27T08:26:35.723Z,12.08
2022-12-27T08:29:02.343Z,12.17
2022-12-27T08:31:28.919Z,12.17
2022-12-27T08:33:58.612Z,12.19
2022-12-27T08:39:12.369Z,13.00
2022-12-27T08:41:39.355Z,13.06
2022-12-27T08:44:06.536Z,12.91
2022-12-27T08:46:33.226Z,12.80
2022-12-27T08:48:59.983Z,12.74
2022-12-27T08:51:35.975Z,12.59
2022-12-27T08:54:07.257Z,12.47
2022-12-27T08:56:33.828Z,12.65
2022-12-27T08:59:00.444Z,12.83
2022-12-27T09:01:27.247Z,12.80
2022-12-27T09:03:54.044Z,12.91
2022-12-27T09:06:21.808Z,12.92
2022-12-27T09:08:49.247Z,13.00
2022-12-27T09:11:17.334Z,13.13
2022-12-27T09:13:44.050Z,12.86
2022-12-27T09:16:15.068Z,13.13
2022-12-27T09:18:42.181Z,12.94
2022-12-27T09:21:10.383Z,13.10
2022-12-27T09:23:37.655Z,13.10
2022-12-27T09:26:05.237Z,13.22
2022-12-27T09:28:32.084Z,13.33
2022-12-27T09:30:58.678Z,13.31
2022-12-27T09:33:25.324Z,13.36
2022-12-27T09:35:51.858Z,13.38
2022-12-27T09:38:18.703Z,13.62
2022-12-27T09:40:55.591Z,13.65
2022-12-27T09:43:27.711Z,13.76
2022-12-27T09:45:56.738Z,13.70
2022-12-27T09:48:32.767Z,13.73
2022-12-27T09:51:03.107Z,13.95
2022-12-27T09:53:51.148Z,14.07
2022-12-27T09:56:23.352Z,14.30
2022-12-27T09:58:51.786Z,14.41
2022-12-27T10:01:21.704Z,14.46
2022-12-27T10:03:49.289Z,14.57
2022-12-27T10:06:29.496Z,14.61
2022-12-27T10:09:06.421Z,14.63
2022-12-27T10:11:52.544Z,14.89
2022-12-27T10:14:19.089Z,15.00
2022-12-27T10:16:50.624Z,15.03
2022-12-27T10:19:23.876Z,15.18
2022-12-27T10:22:08.834Z,15.10
2022-12-27T10:24:45.844Z,15.13
2022-12-27T10:27:30.887Z,15.31
2022-12-27T10:29:59.198Z,15.40
2022-12-27T10:32:26.227Z,15.47
2022-12-27T10:34:56.892Z,15.61
2022-12-27T10:37:23.605Z,15.74
2022-12-27T10:39:50.164Z,15.79
2022-12-27T10:42:22.732Z,15.99
2022-12-27T10:44:49.321Z,16.21
2022-12-27T10:47:16.296Z,16.30
2022-12-27T10:49:44.832Z,16.25
2022-12-27T10:52:17.979Z,16.40
2022-12-27T10:54:51.967Z,16.52
2022-12-27T10:57:25.971Z,16.71
2022-12-27T11:00:11.228Z,16.68
2022-12-27T11:02:48.781Z,16.86
2022-12-27T11:05:20.728Z,16.91
2022-12-27T11:07:47.368Z,17.01
2022-12-27T11:10:23.927Z,17.09
2022-12-27T11:12:57.149Z,17.04
2022-12-27T11:15:24.399Z,17.09
2022-12-27T11:17:53.786Z,17.16
2022-12-27T11:20:22.335Z,17.24
2022-12-27T11:22:52.359Z,17.36
2022-12-27T11:25:19.353Z,17.39
2022-12-27T11:27:52.947Z,17.44
2022-12-27T11:30:39.831Z,17.49
2022-12-27T11:33:26.388Z,17.63
2022-12-27T11:35:54.350Z,17.75
2022-12-27T11:38:25.270Z,17.77
2022-12-27T11:40:58.811Z,17.74
2022-12-27T11:43:27.808Z,17.62
2022-12-27T11:45:55.875Z,17.55
2022-12-27T11:48:28.295Z,17.76
2022-12-27T11:50:55.540Z,17.89
2022-12-27T11:53:42.050Z,17.99
2022-12-27T11:56:16.989Z,18.12
2022-12-27T11:58:49.823Z,18.26
2022-12-27T12:01:48.853Z,18.30
2022-12-27T12:04:21.629Z,18.32
2022-12-27T12:07:03.673Z,18.40
2022-12-27T12:09:48.805Z,18.45
2022-12-27T12:12:21.295Z,18.55
2022-12-27T12:14:51.738Z,18.65
2022-12-27T12:17:32.471Z,18.70
2022-12-27T12:20:14.217Z,18.78
2022-12-27T12:22:59.977Z,18.82
2022-12-27T12:25:32.416Z,18.87
2022-12-27T12:28:47.260Z,18.92
2022-12-27T12:31:23.081Z,19.01
2022-12-27T12:34:07.782Z,19.05
2022-12-27T12:36:34.409Z,19.09
2022-12-27T12:39:06.923Z,19.09
2022-12-27T12:41:52.149Z,18.99
2022-12-27T12:44:31.744Z,18.96
2022-12-27T12:47:19.417Z,19.02
2022-12-27T12:50:07.944Z,19.03
2022-12-27T12:52:45.607Z,19.05
2022-12-27T12:55:12.165Z,19.09
2022-12-27T12:57:44.965Z,19.12
2022-12-27T13:00:15.289Z,19.14
2022-12-27T13:02:58.704Z,19.21
2022-12-27T13:05:40.759Z,19.24
2022-12-27T13:08:13.144Z,19.30
2022-12-27T13:10:42.608Z,19.30
2022-12-27T13:13:29.406Z,19.31
2022-12-27T13:15:56.090Z,19.35
2022-12-27T13:18:41.512Z,19.37
2022-12-27T13:21:28.392Z,19.37
2022-12-27T13:24:02.041Z,19.42
2022-12-27T13:26:38.593Z,19.42
2022-12-27T13:29:05.163Z,19.42
2022-12-27T13:31:58.974Z,19.47
2022-12-27T13:34:28.333Z,19.47
2022-12-27T13:37:13.440Z,19.48
2022-12-27T13:39:42.882Z,19.35
2022-12-27T13:42:18.445Z,19.36
2022-12-27T13:44:45.157Z,19.38
2022-12-27T13:47:12.406Z,19.38
2022-12-27T13:49:51.662Z,19.42
2022-12-27T13:52:36.833Z,19.42
2022-12-27T13:55:06.274Z,19.40
2022-12-27T13:57:51.353Z,19.44
2022-12-27T14:00:18.156Z,19.43
2022-12-27T14:02:44.892Z,19.38
2022-12-27T14:05:31.007Z,19.36
2022-12-27T14:08:16.263Z,19.35
2022-12-27T14:10:53.868Z,19.37
2022-12-27T14:13:34.435Z,19.34
2022-12-27T14:16:13.434Z,19.28
2022-12-27T14:18:40.050Z,19.26
2022-12-27T14:21:06.581Z,19.24
2022-12-27T14:23:51.857Z,19.15
2022-12-27T14:26:21.548Z,19.15
2022-12-27T14:29:06.814Z,19.13
2022-12-27T14:31:50.275Z,19.09
2022-12-27T14:34:57.430Z,19.06
2022-12-27T14:37:25.872Z,19.04
2022-12-27T14:40:11.334Z,18.99
2022-12-27T14:42:56.872Z,18.95
2022-12-27T14:45:32.667Z,18.77
2022-12-27T14:48:02.128Z,18.75
2022-12-27T14:50:47.310Z,18.78
2022-12-27T14:53:31.765Z,18.75
2022-12-27T14:56:16.944Z,18.70
2022-12-27T14:58:43.641Z,18.63
2022-12-27T15:01:28.790Z,18.63
2022-12-27T15:04:03.275Z,18.58
2022-12-27T15:06:33.070Z,18.59
2022-12-27T15:09:09.389Z,18.57
2022-12-27T15:11:47.793Z,18.51
2022-12-27T15:14:31.348Z,18.51
2022-12-27T15:17:06.898Z,18.50
2022-12-27T15:19:39.582Z,18.51
2022-12-27T15:22:13.172Z,18.48
2022-12-27T15:24:39.782Z,18.46
2022-12-27T15:27:06.366Z,18.45
2022-12-27T15:29:36.039Z,18.36
2022-12-27T15:32:05.472Z,18.28
2022-12-27T15:34:41.176Z,18.30
2022-12-27T15:37:27.730Z,18.28
2022-12-27T15:39:54.430Z,18.30
2022-12-27T15:42:43.399Z,18.26
2022-12-27T15:45:32.862Z,18.22
2022-12-27T15:48:18.074Z,18.21
2022-12-27T15:50:47.482Z,18.19
2022-12-27T15:53:22.866Z,18.18
2022-12-27T15:56:01.508Z,18.12
2022-12-27T15:58:28.335Z,18.06
2022-12-27T16:01:13.601Z,18.04
2022-12-27T16:03:41.839Z,18.04
2022-12-27T16:06:09.307Z,18.02
2022-12-27T16:08:37.867Z,18.01
2022-12-27T16:11:05.592Z,17.99
2022-12-27T16:13:41.376Z,17.94
2022-12-27T16:16:33.475Z,17.90
2022-12-27T16:19:13.017Z,17.83
2022-12-27T16:21:42.769Z,17.81
2022-12-27T16:24:16.517Z,17.76
2022-12-27T16:26:54.918Z,17.72
2022-12-27T16:29:24.573Z,17.69
2022-12-27T16:31:51.640Z,17.64
2022-12-27T16:34:23.940Z,17.60
2022-12-27T16:36:52.102Z,17.59
2022-12-27T16:39:28.249Z,17.52
2022-12-27T16:41:55.054Z,17.47
2022-12-27T16:44:33.163Z,17.42
2022-12-27T16:47:09.311Z,17.39
2022-12-27T16:49:55.620Z,17.35
2022-12-27T16:52:41.056Z,17.34
2022-12-27T16:55:13.549Z,17.33
2022-12-27T16:57:44.461Z,17.32
2022-12-27T17:00:11.154Z,17.27
2022-12-27T17:02:40.603Z,17.22
2022-12-27T17:05:16.334Z,17.21
2022-12-27T17:07:50.594Z,17.17
2022-12-27T17:10:35.400Z,17.14
2022-12-27T17:13:04.839Z,17.19
2022-12-27T17:15:32.061Z,17.17
2022-12-27T17:18:04.500Z,17.15
2022-12-27T17:20:31.380Z,17.14
2022-12-27T17:22:58.408Z,17.10
2022-12-27T17:25:30.084Z,17.09
2022-12-27T17:27:56.652Z,17.04
2022-12-27T17:30:33.866Z,17.05
2022-12-27T17:33:15.058Z,17.04
2022-12-27T17:36:20.261Z,17.01
2022-12-27T17:38:52.353Z,16.97
2022-12-27T17:41:47.665Z,16.96
2022-12-27T17:44:38.788Z,16.96
2022-12-27T17:47:24.000Z,16.93
2022-12-27T17:49:51.061Z,16.90
2022-12-27T17:52:37.370Z,16.90
2022-12-27T17:55:39.125Z,16.82
2022-12-27T17:58:07.779Z,16.80
2022-12-27T18:00:37.753Z,16.80
2022-12-27T18:03:07.935Z,16.79
2022-12-27T18:05:36.829Z,16.80
2022-12-27T18:08:05.098Z,16.73
2022-12-27T18:10:34.387Z,16.71
2022-12-27T18:13:02.965Z,16.69
2022-12-27T18:15:32.307Z,16.70
2022-12-27T18:18:00.304Z,16.66
2022-12-27T18:20:29.700Z,16.65
2022-12-27T18:23:02.046Z,16.65
2022-12-27T18:25:42.742Z,16.62
2022-12-27T18:28:16.565Z,16.61
2022-12-27T18:30:45.844Z,16.60
2022-12-27T18:33:13.749Z,16.55
2022-12-27T18:35:44.401Z,16.54
2022-12-27T18:38:14.387Z,16.52
2022-12-27T18:40:41.849Z,16.51
2022-12-27T18:43:15.329Z,16.49
2022-12-27T18:45:42.094Z,16.50
2022-12-27T18:48:14.640Z,16.49
2022-12-27T18:50:49.021Z,16.47
2022-12-27T18:53:45.790Z,16.45
2022-12-27T18:56:15.782Z,16.42
2022-12-27T18:59:01.108Z,16.35
2022-12-27T19:01:30.956Z,16.34
2022-12-27T19:04:19.163Z,16.32
2022-12-27T19:06:55.333Z,16.29
2022-12-27T19:09:23.770Z,16.27
2022-12-27T19:11:55.416Z,16.04
2022-12-27T19:14:22.773Z,15.93
2022-12-27T19:16:51.331Z,15.94
2022-12-27T19:19:20.388Z,15.89
2022-12-27T19:21:46.954Z,15.89
2022-12-27T19:24:19.858Z,15.83
2022-12-27T19:26:46.600Z,15.84
2022-12-27T19:29:14.664Z,15.73
2022-12-27T19:31:43.262Z,15.70
2022-12-27T19:34:13.210Z,15.58
2022-12-27T19:36:40.889Z,15.59
2022-12-27T19:39:19.118Z,15.51
2022-12-27T19:41:46.292Z,15.44
2022-12-27T19:44:12.974Z,15.42
2022-12-27T19:46:39.625Z,15.38
2022-12-27T19:51:55.771Z,15.22
2022-12-27T19:54:22.975Z,15.07
2022-12-27T19:56:49.743Z,14.80
2022-12-27T19:59:17.734Z,14.85
2022-12-27T20:01:45.589Z,14.87
2022-12-27T20:04:12.824Z,14.87
2022-12-27T20:06:39.621Z,14.81
2022-12-27T20:09:09.229Z,14.83
2022-12-27T20:11:36.037Z,14.78
2022-12-27T20:14:02.653Z,14.52
2022-12-27T20:16:29.258Z,14.69
2022-12-27T20:19:00.105Z,14.66
2022-12-27T20:21:26.707Z,14.51
2022-12-27T20:23:53.280Z,14.55
2022-12-27T20:26:21.412Z,14.62
2022-12-27T20:28:48.500Z,14.51
2022-12-27T20:31:16.753Z,14.35
2022-12-27T20:33:43.510Z,14.46
2022-12-27T20:36:10.488Z,14.31
2022-12-27T20:38:40.231Z,14.42
2022-12-27T20:41:11.429Z,14.54
2022-12-27T20:43:38.087Z,14.55
2022-12-27T20:46:09.059Z,14.63
2022-12-27T20:48:40.000Z,14.72
2022-12-27T20:51:07.704Z,14.73
2022-12-27T20:53:34.222Z,14.69
2022-12-27T20:56:01.285Z,14.68
2022-12-27T20:58:28.118Z,14.48
2022-12-27T21:00:54.890Z,14.56
2022-12-27T21:03:21.738Z,14.45
2022-12-27T21:05:48.451Z,14.35
2022-12-27T21:08:15.013Z,14.43
2022-12-27T21:10:41.707Z,14.50
2022-12-27T21:13:08.433Z,14.38
2022-12-27T21:15:42.124Z,14.51
2022-12-27T21:18:09.172Z,14.55
2022-12-27T21:20:35.737Z,14.47
2022-12-27T21:23:02.383Z,14.54
2022-12-27T21:25:28.966Z,14.56
2022-12-27T21:27:55.506Z,14.59
2022-12-27T21:30:22.066Z,14.57
2022-12-27T21:32:48.686Z,14.54
2022-12-27T21:35:16.257Z,14.48
2022-12-27T21:37:42.978Z,14.46
2022-12-27T21:40:09.928Z,14.51
2022-12-27T21:42:36.505Z,14.48
2022-12-27T21:45:03.189Z,14.46
2022-12-27T21:47:31.639Z,14.50
2022-12-27T21:49:58.162Z,14.42
2022-12-27T21:52:24.741Z,14.44
2022-12-27T21:54:51.332Z,14.43
2022-12-27T21:57:17.936Z,14.30
2022-12-27T21:59:44.502Z,14.37
2022-12-27T22:02:11.417Z,14.30
2022-12-27T22:04:38.176Z,14.29
2022-12-27T22:07:04.797Z,14.26
2022-12-27T22:09:31.374Z,14.19
2022-12-27T22:11:57.952Z,14.20
2022-12-27T22:14:25.763Z,14.18
2022-12-27T22:16:53.631Z,14.20
2022-12-27T22:19:20.189Z,14.21
2022-12-27T22:21:46.850Z,14.17
2022-12-27T22:24:19.246Z,14.15
2022-12-27T22:26:48.389Z,14.15
2022-12-27T22:29:15.001Z,14.14
2022-12-27T22:31:42.851Z,14.09
2022-12-27T22:34:09.525Z,14.12
2022-12-27T22:36:36.364Z,14.05
2022-12-27T22:39:03.590Z,14.03
2022-12-27T22:41:31.675Z,13.97
2022-12-27T22:44:03.098Z,14.02
2022-12-27T22:46:51.046Z,14.02
2022-12-27T22:49:17.323Z,13.98
2022-12-27T22:51:43.963Z,13.98
2022-12-27T22:54:10.669Z,13.96
2022-12-27T22:56:38.502Z,13.89
2022-12-27T22:59:10.006Z,13.85
2022-12-27T23:01:36.786Z,13.85
2022-12-27T23:04:04.724Z,13.75
2022-12-27T23:06:32.239Z,13.77
2022-12-27T23:08:59.215Z,13.71
2022-12-27T23:11:27.413Z,13.57
2022-12-27T23:13:59.374Z,13.57
2022-12-27T23:16:26.038Z,13.65
2022-12-27T23:18:52.763Z,13.70
2022-12-27T23:21:24.406Z,13.67
2022-12-27T23:23:51.772Z,13.66
2022-12-27T23:26:19.561Z,13.68
2022-12-27T23:28:46.794Z,13.63
2022-12-27T23:31:14.046Z,13.57
2022-12-27T23:33:41.713Z,13.59
2022-12-27T23:36:08.765Z,13.63
2022-12-27T23:38:35.559Z,13.61
2022-12-27T23:41:03.378Z,13.61
2022-12-27T23:43:51.500Z,13.63
2022-12-27T23:46:18.669Z,13.60
2022-12-27T23:48:45.276Z,13.48
2022-12-27T23:51:12.600Z,13.56
2022-12-27T23:53:39.307Z,13.55
2022-12-27T23:56:13.052Z,13.57
2022-12-27T23:58:39.678Z,13.55
